Olmstead, KY

1:31 PM CDT on August 29, 2014 (GMT -0500)
Al Bedel Road | Change Station
CLOSE
Current Station
Personal Weather Station
Location: Auburn, KY
Elevation: 650 ft
Nearby Weather Stations

Elev 650 ft 36.84 °N, 86.78 °W | Updated 1 minute ago

Partly Cloudy
Partly Cloudy
92.4 °F
Feels Like 96 °F
N
2.0
Wind Variable Wind from East
Gusts 4.0 mph

Today
High -- | Low -- °F
--% Chance of Precip.
Yesterday
High -- | Low -- °F
Precip. -- in
6:16 AM 7:20 PM
Waxing Crescent, 16% visible
Pressure 29.99 in
Visibility 3.0 miles
Clouds Few 15000 ft
Heat Index 96 °F
Dew Point 67 °F
Humidity 44%
Rainfall 0.00 in
Snow Depth Not available.
UV 10 out of 12
Pollen 10.60 out of 12
Air Quality Not available.
Flu Activity Not available.
METAR KHOP 291758Z AUTO 16009KT 3SM HZ FEW150 33/20 A3000 RMK AO2 DZB1708E1716 SLP154 P0000 60000 T03270198 10327 20220 57008

More Conditions Fewer Conditions

Pressure 29.99 in
Visibility 3.0 miles
Clouds Few 15000 ft
Heat Index 96 °F
Dew Point 67 °F
Humidity 44%
Rainfall 0.00 in
Snow Depth Not available.
UV 10 out of 12
Pollen 10.60 out of 12
Air Quality Not available.
Flu Activity Not available.
METAR KHOP 291758Z AUTO 16009KT 3SM HZ FEW150 33/20 A3000 RMK AO2 DZB1708E1716 SLP154 P0000 60000 T03270198 10327 20220 57008

More Conditions Fewer Conditions

10-Day Weather Forecast

Almanac

Astronomy

Aug. 29, 2014 Rise Set
Actual Time 6:16 AM CDT 7:20 PM CDT
Civil Twilight 5:50 AM CDT 7:46 PM CDT
Nautical Twilight 5:18 AM CDT 8:18 PM CDT
Astronomical Twilight 4:45 AM CDT 8:51 PM CDT
Moon 9:58 AM CDT 9:25 PM CDT
Length of Visible Light 13h 56m
Length of Day
13h 03m
Tomorrow will be 2m 13s shorter.
Waxing Crescent, 16% of the Moon is Illuminated
Today
Waxing Crescent
Sep 2
First Quarter
Sep 8
Full
Sep 15
Last Quarter
Sep 24
New

Today's Extremes

State Highs State Lows

Community

WunderPhotos

Upload Photos

1,748,313 photos uploaded!

Nearby

Snow Depth

Station Depth Elevation
No new snow has been reported.

Earthquake Activity

City Distance Mag. Time & Date
No recent earthquake activity has been reported nearby.
Minimum magnitude displayed is 2.5.

Coastal Water Temperatures

Place Temperature
No Stations Reporting

Nearby Weather Stations